createdAt,value
2018-12-29T00:00:51.438Z,46.03
2018-12-29T00:01:56.763Z,45.30
2018-12-29T00:03:02.024Z,46.30
2018-12-29T00:04:07.289Z,46.98
2018-12-29T00:05:12.397Z,48.30
2018-12-29T00:06:17.633Z,45.52
2018-12-29T00:07:22.955Z,49.35
2018-12-29T00:08:28.146Z,47.27
2018-12-29T00:09:33.354Z,47.20
2018-12-29T00:10:38.615Z,47.83
2018-12-29T00:11:43.718Z,46.70
2018-12-29T00:12:48.995Z,47.80
2018-12-29T00:13:54.154Z,48.00
2018-12-29T00:14:59.408Z,49.53
2018-12-29T00:16:04.617Z,46.70
2018-12-29T00:17:09.938Z,45.50
2018-12-29T00:18:15.203Z,48.28
2018-12-29T00:19:20.432Z,49.93
2018-12-29T00:20:25.642Z,47.43
2018-12-29T00:21:30.862Z,48.30
2018-12-29T00:22:36.136Z,47.70
2018-12-29T00:23:41.452Z,49.67
2018-12-29T00:24:46.649Z,47.95
2018-12-29T00:25:51.888Z,48.68
2018-12-29T00:26:57.166Z,50.33
2018-12-29T00:28:02.422Z,50.38
2018-12-29T00:29:07.701Z,49.80
2018-12-29T00:30:12.831Z,50.52
2018-12-29T00:31:18.125Z,49.18
2018-12-29T00:32:23.512Z,47.98
2018-12-29T00:33:28.760Z,49.48
2018-12-29T00:34:33.997Z,47.78
2018-12-29T00:35:39.175Z,47.73
2018-12-29T00:36:44.430Z,50.65
2018-12-29T00:37:49.602Z,49.30
2018-12-29T00:38:54.802Z,49.20
2018-12-29T00:40:00.028Z,47.73
2018-12-29T00:41:05.435Z,49.10
2018-12-29T00:42:10.723Z,48.43
2018-12-29T00:43:16.022Z,49.23
2018-12-29T00:44:21.199Z,48.92
2018-12-29T00:45:26.559Z,47.57
2018-12-29T00:46:31.730Z,47.83
2018-12-29T00:47:37.003Z,49.03
2018-12-29T00:48:42.229Z,48.90
2018-12-29T00:49:47.513Z,51.20
2018-12-29T00:50:52.755Z,50.60
2018-12-29T00:51:58.008Z,50.27
2018-12-29T00:53:03.227Z,48.33
2018-12-29T00:54:08.410Z,49.18
2018-12-29T00:55:13.686Z,48.58
2018-12-29T00:56:18.911Z,47.20
2018-12-29T00:57:24.880Z,49.10
2018-12-29T00:58:30.036Z,49.13
2018-12-29T00:59:35.213Z,49.43
2018-12-29T01:00:40.350Z,48.47
2018-12-29T01:01:45.550Z,49.83
2018-12-29T01:02:50.791Z,49.17
2018-12-29T01:03:56.046Z,48.53
2018-12-29T01:05:01.327Z,47.73
2018-12-29T01:06:06.645Z,49.03
2018-12-29T01:07:11.752Z,50.30
2018-12-29T01:08:17.015Z,50.88
2018-12-29T01:09:22.227Z,48.13
2018-12-29T01:10:27.398Z,49.53
2018-12-29T01:11:32.703Z,48.95
2018-12-29T01:12:38.038Z,49.25
2018-12-29T01:13:43.302Z,51.17
2018-12-29T01:14:48.513Z,50.50
2018-12-29T01:15:53.680Z,51.00
2018-12-29T01:16:58.958Z,48.68
2018-12-29T01:18:04.131Z,49.70
2018-12-29T01:19:09.277Z,50.47
2018-12-29T01:20:14.417Z,52.03
2018-12-29T01:21:19.495Z,53.87
2018-12-29T01:22:24.803Z,51.48
2018-12-29T01:23:29.955Z,51.77
2018-12-29T01:24:35.200Z,50.30
2018-12-29T01:25:40.414Z,48.85
2018-12-29T01:26:45.596Z,49.17
2018-12-29T01:27:50.771Z,50.43
2018-12-29T01:28:55.926Z,50.45
2018-12-29T01:30:01.157Z,48.95
2018-12-29T01:31:06.319Z,50.23
2018-12-29T01:32:11.468Z,51.37
2018-12-29T01:33:16.617Z,50.70
2018-12-29T01:34:21.819Z,50.20
2018-12-29T01:35:27.229Z,53.27
2018-12-29T01:36:32.375Z,52.00
2018-12-29T01:37:37.529Z,54.90
2018-12-29T01:38:42.624Z,62.73
2018-12-29T01:39:47.920Z,54.67
2018-12-29T01:40:53.079Z,53.13
2018-12-29T01:41:58.225Z,52.53
2018-12-29T01:43:03.513Z,50.30
2018-12-29T01:44:08.780Z,51.28
2018-12-29T01:45:17.582Z,48.50
2018-12-29T01:46:20.873Z,50.67
2018-12-29T01:47:26.052Z,51.57
2018-12-29T01:48:31.197Z,51.60
2018-12-29T01:49:36.450Z,51.05
2018-12-29T01:50:41.525Z,51.57
2018-12-29T01:51:46.750Z,51.13
2018-12-29T01:52:51.934Z,51.17
2018-12-29T01:53:57.015Z,51.97
2018-12-29T01:55:02.245Z,49.30
2018-12-29T01:56:07.498Z,49.50
2018-12-29T01:57:12.547Z,51.05
2018-12-29T01:58:17.757Z,49.85
2018-12-29T01:59:22.869Z,49.00
2018-12-29T02:00:28.021Z,49.50
2018-12-29T02:01:33.075Z,48.23
2018-12-29T02:02:38.184Z,49.60
2018-12-29T02:03:43.330Z,49.07
2018-12-29T02:04:48.586Z,49.73
2018-12-29T02:05:53.877Z,48.28
2018-12-29T02:06:59.020Z,48.50
2018-12-29T02:08:04.176Z,49.38
2018-12-29T02:09:09.429Z,48.97
2018-12-29T02:10:14.711Z,49.40
2018-12-29T02:11:19.960Z,49.17
2018-12-29T02:12:25.341Z,48.97
2018-12-29T02:13:30.500Z,51.88
2018-12-29T02:14:35.760Z,50.50
2018-12-29T02:15:40.928Z,48.35
2018-12-29T02:16:46.154Z,49.10
2018-12-29T02:17:51.299Z,51.02
2018-12-29T02:18:56.546Z,50.30
2018-12-29T02:20:01.791Z,48.03
2018-12-29T02:21:07.010Z,49.37
2018-12-29T02:22:12.168Z,49.98
2018-12-29T02:23:17.303Z,50.17
2018-12-29T02:24:22.451Z,49.77
2018-12-29T02:25:27.664Z,48.73
2018-12-29T02:26:32.832Z,48.73
2018-12-29T02:27:37.971Z,48.90
2018-12-29T02:28:43.205Z,48.37
2018-12-29T02:29:48.474Z,49.50
2018-12-29T02:30:53.722Z,50.10
2018-12-29T02:31:58.853Z,45.93
2018-12-29T02:33:04.128Z,47.93
2018-12-29T02:34:09.287Z,47.23
2018-12-29T02:35:14.580Z,49.20
2018-12-29T02:36:19.704Z,49.10
2018-12-29T02:37:24.835Z,48.27
2018-12-29T02:38:29.968Z,49.63
2018-12-29T02:39:35.145Z,49.03
2018-12-29T02:40:40.432Z,49.97
2018-12-29T02:41:46.253Z,47.93
2018-12-29T02:42:51.313Z,50.33
2018-12-29T02:43:56.457Z,47.17
2018-12-29T02:45:01.738Z,48.20
2018-12-29T02:46:06.949Z,47.83
2018-12-29T02:47:12.124Z,48.17
2018-12-29T02:48:17.269Z,50.53
2018-12-29T02:49:22.526Z,49.20
2018-12-29T02:50:27.708Z,51.67
2018-12-29T02:51:33.019Z,48.70
2018-12-29T02:52:38.133Z,51.80
2018-12-29T02:53:43.333Z,51.10
2018-12-29T02:54:48.581Z,50.88
2018-12-29T02:55:53.871Z,50.00
2018-12-29T02:56:59.113Z,50.20
2018-12-29T02:58:04.322Z,52.98
2018-12-29T02:59:09.580Z,52.43
2018-12-29T03:00:14.952Z,51.37
2018-12-29T03:01:21.093Z,52.73
2018-12-29T03:02:26.316Z,50.63
2018-12-29T03:03:31.575Z,52.58
2018-12-29T03:04:36.883Z,52.53
2018-12-29T03:05:42.148Z,51.33
2018-12-29T03:06:47.302Z,50.12
2018-12-29T03:07:52.494Z,52.20
2018-12-29T03:08:57.643Z,53.07
2018-12-29T03:10:02.860Z,52.53
2018-12-29T03:11:08.037Z,50.47
2018-12-29T03:12:13.275Z,50.57
2018-12-29T03:13:18.475Z,51.10
2018-12-29T03:14:23.695Z,50.70
2018-12-29T03:15:28.846Z,50.77
2018-12-29T03:16:33.913Z,49.27
2018-12-29T03:17:39.197Z,51.03
2018-12-29T03:18:44.350Z,49.93
2018-12-29T03:19:49.538Z,50.12
2018-12-29T03:20:54.799Z,51.00
2018-12-29T03:21:59.898Z,49.80
2018-12-29T03:23:05.079Z,52.00
2018-12-29T03:24:10.203Z,49.80
2018-12-29T03:25:15.288Z,50.13
2018-12-29T03:26:21.311Z,51.55
2018-12-29T03:27:26.550Z,49.73
2018-12-29T03:28:31.680Z,51.08
2018-12-29T03:29:36.914Z,49.90
2018-12-29T03:30:42.039Z,50.87
2018-12-29T03:31:47.301Z,48.67
2018-12-29T03:32:52.547Z,48.87
2018-12-29T03:33:57.730Z,49.97
2018-12-29T03:35:02.953Z,51.13
2018-12-29T03:36:08.120Z,49.97
2018-12-29T03:37:13.422Z,50.03
2018-12-29T03:38:18.759Z,49.87
2018-12-29T03:39:23.943Z,50.20
2018-12-29T03:40:29.080Z,50.57
2018-12-29T03:41:34.372Z,50.50
2018-12-29T03:42:39.512Z,52.30
2018-12-29T03:43:44.653Z,51.57
2018-12-29T03:44:49.794Z,49.43
2018-12-29T03:45:55.018Z,47.87
2018-12-29T03:47:00.162Z,49.27
2018-12-29T03:48:05.329Z,48.13
2018-12-29T03:49:10.398Z,49.03
2018-12-29T03:50:15.576Z,48.23
2018-12-29T03:51:20.894Z,49.00
2018-12-29T03:52:26.041Z,48.87
2018-12-29T03:53:31.266Z,50.10
2018-12-29T03:54:36.371Z,52.13
2018-12-29T03:55:41.551Z,50.90
2018-12-29T03:56:46.810Z,50.43
2018-12-29T03:57:52.016Z,50.67
2018-12-29T03:58:57.144Z,51.42
2018-12-29T04:00:02.327Z,51.70
2018-12-29T04:01:07.959Z,49.87
2018-12-29T04:02:13.213Z,51.65
2018-12-29T04:03:18.383Z,48.47
2018-12-29T04:04:23.571Z,50.83
2018-12-29T04:05:28.761Z,48.90
2018-12-29T04:06:34.015Z,49.97
2018-12-29T04:07:39.303Z,50.10
2018-12-29T04:09:40.751Z,49.55
2018-12-29T04:10:45.921Z,44.90
2018-12-29T04:11:51.158Z,48.73
2018-12-29T04:12:59.136Z,48.60
2018-12-29T04:14:04.284Z,49.38
2018-12-29T04:15:09.453Z,48.10
2018-12-29T04:16:14.598Z,50.20
2018-12-29T04:17:20.098Z,48.68
2018-12-29T04:18:25.310Z,50.65
2018-12-29T04:19:30.549Z,49.33
2018-12-29T04:20:36.082Z,51.83
2018-12-29T04:21:41.595Z,51.65
2018-12-29T04:22:46.764Z,50.10
2018-12-29T04:23:52.015Z,49.70
2018-12-29T04:24:57.196Z,49.50
2018-12-29T04:26:02.305Z,50.00
2018-12-29T04:27:07.433Z,49.65
2018-12-29T04:28:12.619Z,52.75
2018-12-29T04:29:17.857Z,50.52
2018-12-29T04:30:22.974Z,48.45
2018-12-29T04:31:28.158Z,48.15
2018-12-29T04:32:33.399Z,50.30
2018-12-29T04:33:38.655Z,49.20
2018-12-29T04:34:43.892Z,49.00
2018-12-29T04:35:49.138Z,49.85
2018-12-29T04:36:54.283Z,49.13
2018-12-29T04:37:59.464Z,49.80
2018-12-29T04:39:06.069Z,50.55
2018-12-29T04:40:11.245Z,47.00
2018-12-29T04:41:16.403Z,48.35
2018-12-29T04:42:21.621Z,46.60
2018-12-29T04:43:26.846Z,49.93
2018-12-29T04:44:31.928Z,49.67
2018-12-29T04:45:37.089Z,48.20
2018-12-29T04:46:42.311Z,48.20
2018-12-29T04:47:47.487Z,49.77
2018-12-29T04:48:52.625Z,49.53
2018-12-29T04:49:57.799Z,49.30
2018-12-29T04:51:02.909Z,48.60
2018-12-29T04:52:08.167Z,47.20
2018-12-29T04:53:13.338Z,49.27
2018-12-29T04:54:18.557Z,48.15
2018-12-29T04:55:23.659Z,47.70
2018-12-29T04:56:28.845Z,46.33
2018-12-29T04:57:34.081Z,47.53
2018-12-29T04:58:39.340Z,45.85
2018-12-29T04:59:44.505Z,46.47
2018-12-29T05:00:50.696Z,46.00
2018-12-29T05:01:55.973Z,48.55
2018-12-29T05:03:01.219Z,46.77
2018-12-29T05:04:06.407Z,46.50
2018-12-29T05:05:11.549Z,46.57
2018-12-29T05:06:16.828Z,45.15
2018-12-29T05:07:22.000Z,46.47
2018-12-29T05:08:27.291Z,47.75
2018-12-29T05:09:32.431Z,44.95
2018-12-29T05:10:37.675Z,45.23
2018-12-29T05:11:42.856Z,45.53
2018-12-29T05:12:48.041Z,45.60
2018-12-29T05:13:53.285Z,47.03
2018-12-29T05:14:58.419Z,46.67
2018-12-29T05:16:03.693Z,46.80
2018-12-29T05:17:08.935Z,45.95
2018-12-29T05:18:14.101Z,44.03
2018-12-29T05:19:19.392Z,45.13
2018-12-29T05:20:24.541Z,43.25
2018-12-29T05:21:29.699Z,43.27
2018-12-29T05:22:34.859Z,48.53
2018-12-29T05:23:40.033Z,46.00
2018-12-29T05:24:45.269Z,44.13
2018-12-29T05:25:50.497Z,44.27
2018-12-29T05:26:55.702Z,45.67
2018-12-29T05:28:00.950Z,44.63
2018-12-29T05:29:06.097Z,45.53
2018-12-29T05:30:11.347Z,45.40
2018-12-29T05:31:16.518Z,45.80
2018-12-29T05:32:21.822Z,44.83
2018-12-29T05:33:26.975Z,46.83
2018-12-29T05:34:32.283Z,45.90
2018-12-29T05:35:37.514Z,48.15
2018-12-29T05:36:42.585Z,47.53
2018-12-29T05:37:47.843Z,45.37
2018-12-29T05:38:53.060Z,46.87
2018-12-29T05:39:58.245Z,46.20
2018-12-29T05:41:03.426Z,47.17
2018-12-29T05:42:08.649Z,46.42
2018-12-29T05:43:13.888Z,45.53
2018-12-29T05:44:19.135Z,47.33
2018-12-29T05:45:24.278Z,48.93
2018-12-29T05:46:29.544Z,48.40
2018-12-29T05:47:34.688Z,47.77
2018-12-29T05:48:39.881Z,47.23
2018-12-29T05:49:45.127Z,46.15
2018-12-29T05:50:50.394Z,45.35
2018-12-29T05:51:55.612Z,45.35
2018-12-29T05:53:00.713Z,47.47
2018-12-29T05:54:05.977Z,46.47
2018-12-29T05:55:11.234Z,46.40
2018-12-29T05:56:17.862Z,45.30
2018-12-29T05:57:23.217Z,44.88
2018-12-29T05:58:28.510Z,45.83
2018-12-29T05:59:33.724Z,43.93
2018-12-29T06:00:38.985Z,45.28
2018-12-29T06:01:44.138Z,47.80
2018-12-29T06:02:49.498Z,46.35
2018-12-29T06:03:54.559Z,46.92
2018-12-29T06:04:59.748Z,48.70
2018-12-29T06:06:04.890Z,47.73
2018-12-29T06:07:10.105Z,46.85
2018-12-29T06:08:15.204Z,48.60
2018-12-29T06:09:20.479Z,47.60
2018-12-29T06:10:25.624Z,47.00
2018-12-29T06:11:30.783Z,50.23
2018-12-29T06:12:35.968Z,46.95
2018-12-29T06:13:41.202Z,48.27
2018-12-29T06:14:46.483Z,48.70
2018-12-29T06:15:51.716Z,47.62
2018-12-29T06:16:56.906Z,51.58
2018-12-29T06:18:02.065Z,49.80
2018-12-29T06:19:07.256Z,50.43
2018-12-29T06:20:12.489Z,49.48
2018-12-29T06:21:17.709Z,47.80
2018-12-29T06:22:23.046Z,51.55
2018-12-29T06:23:28.331Z,51.08
2018-12-29T06:24:33.465Z,49.85
2018-12-29T06:25:38.626Z,50.63
2018-12-29T06:26:43.857Z,50.95
2018-12-29T06:27:49.111Z,50.60
2018-12-29T06:28:54.295Z,49.57
2018-12-29T06:29:59.449Z,50.73
2018-12-29T06:31:04.629Z,50.53
2018-12-29T06:32:09.804Z,51.37
2018-12-29T06:33:15.057Z,51.67
2018-12-29T06:34:20.209Z,50.53
2018-12-29T06:35:25.445Z,50.87
2018-12-29T06:36:30.633Z,49.97
2018-12-29T06:37:35.791Z,49.87
2018-12-29T06:38:40.923Z,51.73
2018-12-29T06:39:46.175Z,48.83
2018-12-29T06:40:51.287Z,49.93
2018-12-29T06:41:56.472Z,51.47
2018-12-29T06:43:01.617Z,49.23
2018-12-29T06:44:06.885Z,48.97
2018-12-29T06:45:12.123Z,50.47
2018-12-29T06:46:17.291Z,52.53
2018-12-29T06:47:22.522Z,49.80
2018-12-29T06:48:27.693Z,52.77
2018-12-29T06:49:32.900Z,50.53
2018-12-29T06:50:38.117Z,50.57
2018-12-29T06:51:43.293Z,49.67
2018-12-29T06:52:48.465Z,52.00
2018-12-29T06:53:53.707Z,52.77
2018-12-29T06:54:58.900Z,52.63
2018-12-29T06:56:04.122Z,53.00
2018-12-29T06:57:09.333Z,53.20
2018-12-29T06:58:14.545Z,51.10
2018-12-29T06:59:19.759Z,52.50
2018-12-29T07:00:24.897Z,51.00
2018-12-29T07:01:30.070Z,54.83
2018-12-29T07:02:35.147Z,55.07
2018-12-29T07:03:40.243Z,54.73
2018-12-29T07:04:45.327Z,52.27
2018-12-29T07:05:50.579Z,51.80
2018-12-29T07:06:56.681Z,54.58
2018-12-29T07:08:01.957Z,52.93
2018-12-29T07:09:07.688Z,54.90
2018-12-29T07:10:12.951Z,53.85
2018-12-29T07:11:18.179Z,53.10
2018-12-29T07:12:23.524Z,55.80
2018-12-29T07:13:28.666Z,53.40
2018-12-29T07:14:33.955Z,52.00
2018-12-29T07:15:39.071Z,55.95
2018-12-29T07:16:44.359Z,54.40
2018-12-29T07:17:49.504Z,51.57
2018-12-29T07:18:54.792Z,53.27
2018-12-29T07:20:00.045Z,55.43
2018-12-29T07:21:05.172Z,53.10
2018-12-29T07:22:10.326Z,54.03
2018-12-29T07:23:15.420Z,55.50
2018-12-29T07:24:20.593Z,54.63
2018-12-29T07:25:25.814Z,54.33
2018-12-29T07:26:30.967Z,53.48
2018-12-29T07:27:36.075Z,52.23
2018-12-29T07:28:41.345Z,54.73
2018-12-29T07:29:46.691Z,52.43
2018-12-29T07:30:51.913Z,53.97
2018-12-29T07:31:57.044Z,55.23
2018-12-29T07:33:02.205Z,54.70
2018-12-29T07:34:07.442Z,54.63
2018-12-29T07:35:12.695Z,54.15
2018-12-29T07:36:17.899Z,56.70
2018-12-29T07:37:22.996Z,53.50
2018-12-29T07:38:28.222Z,55.87
2018-12-29T07:39:33.467Z,52.03
2018-12-29T07:40:38.646Z,54.80
2018-12-29T07:41:44.983Z,55.40
2018-12-29T07:42:50.421Z,55.00
2018-12-29T07:43:55.686Z,55.03
2018-12-29T07:45:00.872Z,52.77
2018-12-29T07:46:06.041Z,54.67
2018-12-29T07:47:11.361Z,54.70
2018-12-29T07:48:16.606Z,53.83
2018-12-29T07:49:21.866Z,54.97
2018-12-29T07:50:26.981Z,56.15
2018-12-29T07:51:32.156Z,53.92
2018-12-29T07:52:38.260Z,55.27
2018-12-29T07:53:43.520Z,52.63
2018-12-29T07:54:48.746Z,52.87
2018-12-29T07:55:53.982Z,51.77
2018-12-29T07:56:59.487Z,54.67
2018-12-29T07:58:07.322Z,55.60
2018-12-29T07:59:12.657Z,55.50
2018-12-29T08:00:18.020Z,54.45
2018-12-29T08:01:23.382Z,55.87
2018-12-29T08:02:28.658Z,56.27
2018-12-29T08:03:33.903Z,54.47
2018-12-29T08:04:39.179Z,55.00
2018-12-29T08:05:44.496Z,56.03
2018-12-29T08:06:49.660Z,55.93
2018-12-29T08:07:57.964Z,78.63
2018-12-29T08:09:05.002Z,60.87
2018-12-29T08:10:10.238Z,71.63
2018-12-29T08:11:15.377Z,54.50
2018-12-29T08:12:20.480Z,57.30
2018-12-29T08:13:25.669Z,59.10
2018-12-29T08:14:30.830Z,54.88
2018-12-29T08:15:36.273Z,58.20
2018-12-29T08:16:41.624Z,58.07
2018-12-29T08:17:46.804Z,60.60
2018-12-29T08:18:51.942Z,56.97
2018-12-29T08:19:57.086Z,59.13
2018-12-29T08:21:02.209Z,57.33
2018-12-29T08:22:07.383Z,58.20
2018-12-29T08:23:12.492Z,58.60
2018-12-29T08:24:17.681Z,60.90
2018-12-29T08:25:22.914Z,59.67
2018-12-29T08:26:28.023Z,58.20
2018-12-29T08:27:33.178Z,58.33
2018-12-29T08:28:38.450Z,59.30
2018-12-29T08:29:43.717Z,57.57
2018-12-29T08:30:48.869Z,63.30
2018-12-29T08:31:54.013Z,59.23
2018-12-29T08:32:59.159Z,57.80
2018-12-29T08:34:04.412Z,60.00
2018-12-29T08:35:09.611Z,58.90
2018-12-29T08:36:14.850Z,63.77
2018-12-29T08:37:20.130Z,60.03
2018-12-29T08:38:25.484Z,58.23
2018-12-29T08:39:30.732Z,60.03
2018-12-29T08:40:36.031Z,61.97
2018-12-29T08:41:41.150Z,58.87
2018-12-29T08:42:46.432Z,58.60
2018-12-29T08:43:51.675Z,63.95
2018-12-29T08:44:56.848Z,60.73
2018-12-29T08:46:02.002Z,61.40
2018-12-29T08:47:07.246Z,61.17
2018-12-29T08:48:12.413Z,59.23
2018-12-29T08:49:17.645Z,61.90
2018-12-29T08:50:22.822Z,61.35
2018-12-29T08:51:29.119Z,58.87
2018-12-29T08:52:34.279Z,60.87
2018-12-29T08:53:39.366Z,61.67
2018-12-29T08:54:44.602Z,59.93
2018-12-29T08:55:49.822Z,60.00
2018-12-29T08:56:54.984Z,58.10
2018-12-29T08:58:00.206Z,59.37
2018-12-29T08:59:05.931Z,59.00
2018-12-29T09:00:11.226Z,59.73
2018-12-29T09:01:16.439Z,61.70
2018-12-29T09:02:21.665Z,58.10
2018-12-29T09:03:26.870Z,63.08
2018-12-29T09:04:32.115Z,64.03
2018-12-29T09:05:37.379Z,64.23
2018-12-29T09:06:42.594Z,63.60
2018-12-29T09:07:47.834Z,61.47
2018-12-29T09:08:53.112Z,61.42
2018-12-29T09:09:58.371Z,59.47
2018-12-29T09:11:03.601Z,60.83
2018-12-29T09:12:08.842Z,62.25
2018-12-29T09:13:14.006Z,61.03
2018-12-29T09:14:19.184Z,61.37
2018-12-29T09:15:24.342Z,60.97
2018-12-29T09:16:29.586Z,62.17
2018-12-29T09:17:34.741Z,65.10
2018-12-29T09:18:39.837Z,64.90
2018-12-29T09:19:45.021Z,62.48
2018-12-29T09:20:50.206Z,60.37
2018-12-29T09:21:55.503Z,63.40
2018-12-29T09:23:00.648Z,62.13
2018-12-29T09:24:05.866Z,62.10
2018-12-29T09:25:11.029Z,62.43
2018-12-29T09:26:16.325Z,63.53
2018-12-29T09:27:21.463Z,63.10
2018-12-29T09:28:26.703Z,61.05
2018-12-29T09:29:31.855Z,63.20
2018-12-29T09:30:37.240Z,63.08
2018-12-29T09:31:42.376Z,63.53
2018-12-29T09:32:47.656Z,63.00
2018-12-29T09:33:53.777Z,63.47
2018-12-29T09:34:59.105Z,66.20
2018-12-29T09:36:04.408Z,65.83
2018-12-29T09:37:09.726Z,65.25
2018-12-29T09:38:15.869Z,64.93
2018-12-29T09:39:21.008Z,64.15
2018-12-29T09:40:26.318Z,65.25
2018-12-29T09:41:31.537Z,63.87
2018-12-29T09:42:36.714Z,63.37
2018-12-29T09:43:41.842Z,62.90
2018-12-29T09:44:47.011Z,63.73
2018-12-29T09:45:52.377Z,66.02
2018-12-29T09:46:57.618Z,64.40
2018-12-29T09:48:03.722Z,63.68
2018-12-29T09:49:08.941Z,65.50
2018-12-29T09:50:14.250Z,67.10
2018-12-29T09:51:19.562Z,65.53
2018-12-29T09:52:24.865Z,64.53
2018-12-29T09:53:30.017Z,63.63
2018-12-29T09:54:35.183Z,64.27
2018-12-29T09:55:41.355Z,66.20
2018-12-29T09:56:46.574Z,68.00
2018-12-29T09:57:51.833Z,65.10
2018-12-29T09:58:56.963Z,66.27
2018-12-29T10:00:02.195Z,70.73
2018-12-29T10:01:07.510Z,68.17
2018-12-29T10:02:12.624Z,65.80
2018-12-29T10:03:17.872Z,66.20
2018-12-29T10:04:22.955Z,62.70
2018-12-29T10:05:28.299Z,64.67
2018-12-29T10:06:33.465Z,65.93
2018-12-29T10:07:38.680Z,66.77
2018-12-29T10:08:43.823Z,66.13
2018-12-29T10:09:49.004Z,67.27
2018-12-29T10:10:55.278Z,69.15
2018-12-29T10:12:00.520Z,66.10
2018-12-29T10:13:05.758Z,67.60
2018-12-29T10:14:10.930Z,70.73
2018-12-29T10:15:16.159Z,70.70
2018-12-29T10:16:21.438Z,68.80
2018-12-29T10:17:27.150Z,68.17
2018-12-29T10:18:33.362Z,67.63
2018-12-29T10:19:38.637Z,68.83
2018-12-29T10:20:43.888Z,68.80
2018-12-29T10:21:49.152Z,69.70
2018-12-29T10:22:54.341Z,68.07
2018-12-29T10:23:59.528Z,73.00
2018-12-29T10:25:04.857Z,67.60
2018-12-29T10:26:10.095Z,68.97
2018-12-29T10:27:15.277Z,72.33
2018-12-29T10:28:20.438Z,69.07
2018-12-29T10:29:25.707Z,71.37
2018-12-29T10:30:30.898Z,73.37
2018-12-29T10:31:36.123Z,70.40
2018-12-29T10:32:41.354Z,71.67
2018-12-29T10:33:46.505Z,72.40
2018-12-29T10:34:51.740Z,72.50
2018-12-29T10:35:57.002Z,74.37
2018-12-29T10:37:02.149Z,73.30
2018-12-29T10:38:07.300Z,72.23
2018-12-29T10:39:12.416Z,74.73
2018-12-29T10:40:17.643Z,68.77
2018-12-29T10:41:22.777Z,70.80
2018-12-29T10:42:28.044Z,69.93
2018-12-29T10:43:33.303Z,71.50
2018-12-29T10:44:38.499Z,69.50
2018-12-29T10:45:43.739Z,70.67
2018-12-29T10:46:48.913Z,68.87
2018-12-29T10:47:54.061Z,71.27
2018-12-29T10:48:59.151Z,69.27
2018-12-29T10:50:04.570Z,68.23
2018-12-29T10:51:09.877Z,67.73
2018-12-29T10:52:15.192Z,67.87
2018-12-29T10:53:20.377Z,68.50
2018-12-29T10:54:25.698Z,70.70
2018-12-29T10:55:31.015Z,68.60
2018-12-29T10:56:36.192Z,70.33
2018-12-29T10:57:41.410Z,68.13
2018-12-29T10:58:46.694Z,66.07
2018-12-29T10:59:51.847Z,68.70
2018-12-29T11:00:57.008Z,68.17
2018-12-29T11:02:02.119Z,68.57
2018-12-29T11:03:07.337Z,70.50
2018-12-29T11:04:12.648Z,66.77
2018-12-29T11:05:17.903Z,68.93
2018-12-29T11:06:23.211Z,68.53
2018-12-29T11:07:28.378Z,68.30
2018-12-29T11:08:33.616Z,68.77
2018-12-29T11:09:39.041Z,67.53
2018-12-29T11:10:44.251Z,67.43
2018-12-29T11:11:49.496Z,68.73
2018-12-29T11:12:54.690Z,64.70
2018-12-29T11:13:59.828Z,69.90
2018-12-29T11:15:05.225Z,67.53
2018-12-29T11:16:15.209Z,67.43
2018-12-29T11:17:20.464Z,67.60
2018-12-29T11:18:25.675Z,66.47
2018-12-29T11:19:31.643Z,66.83
2018-12-29T11:20:36.789Z,65.60
2018-12-29T11:21:42.025Z,69.00
2018-12-29T11:22:47.240Z,69.80
2018-12-29T11:23:52.337Z,68.13
2018-12-29T11:24:57.686Z,64.23
2018-12-29T11:26:02.913Z,64.80
2018-12-29T11:27:08.133Z,63.47
2018-12-29T11:28:13.271Z,65.87
2018-12-29T11:29:18.573Z,64.77
2018-12-29T11:30:23.869Z,63.47
2018-12-29T11:31:29.100Z,64.83
2018-12-29T11:32:34.246Z,65.33
2018-12-29T11:33:39.498Z,64.10
2018-12-29T11:34:44.703Z,65.60
2018-12-29T11:35:49.907Z,62.63
2018-12-29T11:36:56.779Z,66.10
2018-12-29T11:38:01.925Z,64.93
2018-12-29T11:39:07.726Z,68.60
2018-12-29T11:40:13.048Z,68.37
2018-12-29T11:41:18.254Z,65.70
2018-12-29T11:42:23.306Z,67.17
2018-12-29T11:43:28.469Z,66.13
2018-12-29T11:44:33.778Z,68.73
2018-12-29T11:45:39.044Z,65.57
2018-12-29T11:46:44.193Z,65.23
2018-12-29T11:47:50.306Z,61.17
2018-12-29T11:48:55.547Z,64.70
2018-12-29T11:50:00.823Z,61.43
2018-12-29T11:51:05.964Z,74.07
2018-12-29T11:52:11.245Z,62.37
2018-12-29T11:53:16.683Z,61.57
2018-12-29T11:54:21.973Z,57.03
2018-12-29T11:55:27.381Z,60.30
2018-12-29T11:56:32.620Z,60.60
2018-12-29T11:57:37.786Z,60.07
2018-12-29T11:58:42.919Z,60.77
2018-12-29T11:59:48.155Z,59.10
2018-12-29T12:00:53.324Z,58.57
2018-12-29T12:01:58.609Z,58.47
2018-12-29T12:03:03.817Z,54.73
2018-12-29T12:04:08.960Z,55.17
2018-12-29T12:05:14.239Z,61.57
2018-12-29T12:06:19.471Z,55.27
2018-12-29T12:07:24.601Z,53.37
2018-12-29T12:08:29.833Z,55.33
2018-12-29T12:09:35.099Z,56.40
2018-12-29T12:10:40.308Z,55.37
2018-12-29T12:11:45.436Z,53.00
2018-12-29T12:12:50.616Z,53.97
2018-12-29T12:13:55.786Z,55.43
2018-12-29T12:15:01.018Z,53.13
2018-12-29T12:16:06.506Z,51.03
2018-12-29T12:17:11.742Z,52.73
2018-12-29T12:18:16.893Z,50.97
2018-12-29T12:19:22.277Z,49.67
2018-12-29T12:20:27.597Z,51.87
2018-12-29T12:21:33.463Z,48.53
2018-12-29T12:22:38.738Z,50.93
2018-12-29T12:23:44.050Z,50.20
2018-12-29T12:24:49.400Z,50.30
2018-12-29T12:25:54.612Z,50.70
2018-12-29T12:26:59.843Z,51.97
2018-12-29T12:28:05.052Z,48.37
2018-12-29T12:29:10.450Z,49.87
2018-12-29T12:30:16.041Z,48.90
2018-12-29T12:31:21.359Z,48.27
2018-12-29T12:32:26.620Z,48.57
2018-12-29T12:33:31.977Z,49.30
2018-12-29T12:34:37.909Z,49.50
2018-12-29T12:35:43.229Z,48.10
2018-12-29T12:36:48.762Z,48.20
2018-12-29T12:37:53.984Z,47.87
2018-12-29T12:38:59.135Z,48.27
2018-12-29T12:40:04.637Z,47.60
2018-12-29T12:41:09.778Z,45.50
2018-12-29T12:42:15.093Z,46.10
2018-12-29T12:43:20.287Z,44.87
2018-12-29T12:44:25.813Z,46.10
2018-12-29T12:45:30.967Z,45.67
2018-12-29T12:46:36.644Z,46.20
2018-12-29T12:47:42.176Z,44.03
2018-12-29T12:48:47.387Z,45.70
2018-12-29T12:49:52.513Z,46.57
2018-12-29T12:50:57.647Z,45.83
2018-12-29T12:52:02.881Z,46.03
2018-12-29T12:53:08.122Z,46.57
2018-12-29T12:54:13.566Z,46.10
2018-12-29T12:55:18.695Z,45.40
2018-12-29T12:56:23.929Z,44.90
2018-12-29T12:57:29.141Z,48.73
2018-12-29T12:58:34.761Z,45.33
2018-12-29T12:59:40.079Z,47.10
2018-12-29T13:00:45.257Z,46.03
2018-12-29T13:01:50.864Z,45.13
2018-12-29T13:02:56.136Z,44.20
2018-12-29T13:04:01.273Z,45.97
2018-12-29T13:05:06.576Z,45.17
2018-12-29T13:06:12.731Z,47.23
2018-12-29T13:07:18.508Z,47.13
2018-12-29T13:08:26.391Z,46.00
2018-12-29T13:09:33.856Z,48.47
2018-12-29T13:10:39.053Z,46.77
2018-12-29T13:11:44.312Z,46.77
2018-12-29T13:12:49.560Z,49.67
2018-12-29T13:13:55.724Z,47.13
2018-12-29T13:15:00.878Z,48.00
2018-12-29T13:16:06.077Z,47.53
2018-12-29T13:17:11.380Z,46.07
2018-12-29T13:18:16.472Z,45.60
2018-12-29T13:19:28.383Z,45.00
2018-12-29T13:20:28.787Z,45.90
2018-12-29T13:21:34.068Z,45.67
2018-12-29T13:22:39.279Z,46.53
2018-12-29T13:23:44.497Z,48.00
2018-12-29T13:24:49.638Z,45.70
2018-12-29T13:25:54.772Z,46.30
2018-12-29T13:27:00.030Z,46.60
2018-12-29T13:28:05.566Z,46.53
2018-12-29T13:29:11.010Z,44.97
2018-12-29T13:30:16.215Z,45.97
2018-12-29T13:31:21.467Z,46.53
2018-12-29T13:32:26.708Z,44.43
2018-12-29T13:33:31.999Z,45.67
2018-12-29T13:34:38.094Z,44.93
2018-12-29T13:35:43.342Z,44.93
2018-12-29T13:36:48.483Z,46.17
2018-12-29T13:37:53.766Z,44.00
2018-12-29T13:38:59.030Z,43.43
2018-12-29T13:40:04.308Z,44.87
2018-12-29T13:41:09.459Z,43.60
2018-12-29T13:42:14.712Z,45.87
2018-12-29T13:43:19.941Z,43.43
2018-12-29T13:44:25.102Z,45.40
2018-12-29T13:45:30.302Z,42.67
2018-12-29T13:46:35.845Z,44.47
2018-12-29T13:47:41.025Z,44.20
2018-12-29T13:48:46.274Z,43.97
2018-12-29T13:49:51.431Z,45.63
2018-12-29T13:50:56.639Z,43.33
2018-12-29T13:52:01.908Z,41.30
2018-12-29T13:53:07.063Z,41.73
2018-12-29T13:54:12.315Z,42.63
2018-12-29T13:55:17.532Z,43.93
2018-12-29T13:56:22.786Z,42.37
2018-12-29T13:57:28.118Z,43.07
2018-12-29T13:58:33.705Z,42.93
2018-12-29T13:59:38.884Z,42.40
2018-12-29T14:00:44.241Z,40.00
2018-12-29T14:01:49.769Z,43.67